Sunday, June 26, 2016
11:50 UTC
  |  Log In   |  Register Free
Airport Search:

Owosso Community Airport
(KRNP)

Owosso Community Airport Diagram
No Airport Diagram Available

FAA data valid effective May 26 2016 - Jul 21 2016 (unless otherwise noted).

 
 
 
 
 
 
 
 
 
 
 
 
 
 
Current Aviation Weather for KRNP

Weather Summary


The most recent METAR observation for RNP was updated at: 13:15 UTC
METAR for KRNP is not available. Closest METAR is for KFNT
KRNP  (most recent observation was updatred at 26:09 UTC)
260955Z AUTO 17007KT 10SM CLR 21/14 A3000 RMK AO2 T02120137

KFNT  (17.4 nm NW)   (most recent observation was updated at 26:09 UTC)
260953Z 18008KT 10SM CLR 22/14 A3002 RMK AO2 SLP159 T02170144

KOZW  (22.9 nm NW)   (most recent observation was updated at 26:09 UTC)
260954Z AUTO 15003KT 10SM CLR 20/15 A3003 RMK AO2 T01960147

TAF for KRNP is not available.
KFNT  (17.4 nm NW)   (most recent observation was updatred at 26:05 UTC)
260523Z 2606/2706 18006KT P6SM SCT200 FM261100 18009KT P6SM SCT040 BKN200 FM261600 22013G19KT P6SM SCT050 BKN120 PROB30 2619/2623 3SM TSRA SCT025 OVC050CB FM262300 24007KT P6SM BKN100 FM270500 22004KT P6SM SKC


KLAN  (23.5 nm NE)   (most recent observation was updatred at 26:05 UTC)
260540Z 2606/2706 16008KT P6SM BKN250 FM261200 19010KT P6SM VCSH BKN050 FM261600 21012G18KT P6SM VCTS BKN050CB FM270000 24010KT P6SM BKN250


KMBS  (32.5 nm SW)   (most recent observation was updatred at 26:05 UTC)
260523Z 2606/2706 18007KT P6SM SCT200 FM261000 19009KT P6SM SCT040 BKN200 FM261600 22014G20KT P6SM SCT050 BKN100 PROB30 2618/2622 3SM TSRA SCT025 OVC050CB FM262200 24007KT P6SM BKN100 FM270400 22004KT P6SM SKC
GlobalAir.com is loading additional information.
 Current Weather at RNP
70.0 F° (21.2 C°)

South winds at 8.1 mph
Pressure:
30.00 in
Humidity:
62%
Wind:
South at 8.1 mph
Dew Point:
56.7 F° (13.7 C°)
Visibility:
10.00 mi
RNP NOAA Radar




Find All Airport Services Find A Hotel Find A Rental Car Find A Golf Course Find A Restaurant $100 Hamburger



Airport Weather Forecast for KRNP

Translated METAR for KRNP (0955 UTC)
METAR:
KRNP 260955Z AUTO 17007KT 10SM CLR 21/14 A3000 RMK AO2 T02120137
Conditions at:
KRNP (Owosso Community, MI) observed 0955 UTC 26 June 2016
Temperature:
21°C (69.8°F)
Dewpoint:
14°C (57.2°F) [RH = 64.3]
Pressure:
30 inches Hg (1015.9 mb)
Winds:
from the S (170 degrees) at 8.1 mph (7 knots: 3.6 m/s)
Visibility:
10 mile(s)
Ceiling:
at least 12,000 feet AGL
Clouds:
Clear below 12,000 feet AGL
Remarks:
site is un-manned
site is automated and HAS a precipitation sensor

Translated TAF for KFNT (Bishop Intl, MI) (0523 UTC)
TAF text:
KFNT 260523Z 2606/2706 18006KT P6SM SCT200
Forecast period:
Sunday Jun 26 2016 06:00 UTC - Monday Jun 27 2016 06:00 UTC
Forecast type:
FROM: standard forecast or significant change
Winds:
from the S (180 degrees) at 6.9 mph (6 knots: 3.1 m/s)
Visibility:
6 or more mile(s) (9.7+ km)
Ceiling:
at least 12,000 feet AGL
Clouds:
Scattered Clouds at 20,000 feet AGL
Weather:
no significant weather observed at this time
TAF text:
FM261100 18009KT P6SM SCT040 BKN200
Forecast period:
Sunday Jun 26 2016 11:00 UTC - Sunday Jun 26 2016 16:00 UTC
Forecast type:
FROM: standard forecast or significant change
Winds:
from the S (180 degrees) at 10.4 mph (9 knots: 4.6 m/s)
Visibility:
6 or more mile(s) (9.7+ km)
Ceiling:
20,000 feet AGL
Clouds:
Scattered Clouds at 4,000 feet AGL
Broken Cloud Cover at 20,000 feet AGL
Weather:
no significant weather observed at this time
TAF text:
FM261600 22013G19KT P6SM SCT050 BKN120 PROB30 2619/2623 3SM TSRA SCT025 OVC050CB
Forecast period:
Sunday Jun 26 2016 16:00 UTC - Sunday Jun 26 2016 23:00 UTC
Forecast type:
FROM: standard forecast or significant change
Winds:
from the SW (220 degrees) at 15 mph (13 knots: 6.7 m/s)
gusting to 21.9 mph (19 knots: 9.8 m/s)
Visibility:
6 or more mile(s) (9.7+ km)3 mile(s) (4.8 km)
Ceiling:
12,000 feet AGL
at least 12,000 feet AGL
Clouds:
Scattered Clouds at 5,000 feet AGL
Broken Cloud Cover at 12,000 feet AGL
Scattered Clouds at 2,500 feet AGL
Overcast Skies
Weather:
Moderate Partial
TAF text:
FM262300 24007KT P6SM BKN100
Forecast period:
Sunday Jun 26 2016 23:00 UTC - Monday Jun 27 2016 05:00 UTC
Forecast type:
FROM: standard forecast or significant change
Winds:
from the WSW (240 degrees) at 8.1 mph (7 knots: 3.6 m/s)
Visibility:
6 or more mile(s) (9.7+ km)
Ceiling:
10,000 feet AGL
Clouds:
Broken Cloud Cover at 10,000 feet AGL
Weather:
no significant weather observed at this time
TAF text:
FM270500 22004KT P6SM SKC
Forecast period:
Monday Jun 27 2016 05:00 UTC - Monday Jun 27 2016 06:00 UTC
Forecast type:
FROM: standard forecast or significant change
Winds:
from the SW (220 degrees) at 4.6 mph (4 knots: 2.1 m/s)
Visibility:
6 or more mile(s) (9.7+ km)
Ceiling:
at least 12,000 feet AGL
Clouds:
Clear Skies
Weather:
no significant weather observed at this time
FBO's on the Field
FBO Company Facility Photos Services Transportation Aviation Fuel Prices: Prices include tax
Catering Weather Repair Courtesy Rental Type 100LL JetA JetA+ MOGAS 8087
 
Owosso Community Airport

This FBO has not yet been rated
FS:Avfuel
Last Updated: May-23
Login to update fuel prices
SS:
Contact Owosso Community AirportMore FBO Information
 
Add another FBO Facility Photos Catering Weather Repair Courtesy Rental Type 100LL JetA JetA+ MOGAS 8087
Services Transportation Aviation Fuel Prices: Prices include tax


model-print
model-print
model-print
model-print